Time;durP1;ratioP1;P1;durP2;ratioP2;P2;SDS_P1;SDS_P2;PMS_P1;PMS_P2;Temp;Humidity;BMP_temperature;BMP_pressure;BME280_temperature;BME280_humidity;BME280_pressure;Samples;Min_cycle;Max_cycle;Signal;HPM_P1;HPM_P2
2021/10/07 00:01:04;;;;;;;6.80;4.10;;;11.40;1.00;;;;;;5110476;28;20182;-53
2021/10/07 00:03:30;;;;;;;4.30;3.90;;;11.40;1.00;;;;;;5107908;28;20648;-50
2021/10/07 00:05:55;;;;;;;5.03;3.60;;;11.40;1.00;;;;;;5111150;27;20177;-54
2021/10/07 00:08:21;;;;;;;8.50;4.40;;;11.30;1.00;;;;;;5111016;27;20260;-55
2021/10/07 00:10:46;;;;;;;4.57;3.87;;;11.30;1.00;;;;;;5109409;28;20190;-53
2021/10/07 00:13:12;;;;;;;5.37;4.00;;;11.30;1.00;;;;;;5110259;28;20273;-55
2021/10/07 00:15:37;;;;;;;5.00;3.83;;;11.20;1.00;;;;;;5107676;28;20201;-53
2021/10/07 00:18:03;;;;;;;5.30;3.90;;;11.20;1.00;;;;;;5107360;28;20484;-51
2021/10/07 00:20:28;;;;;;;6.00;4.67;;;11.10;1.00;;;;;;5109903;28;20171;-53
2021/10/07 00:22:54;;;;;;;7.50;5.43;;;11.20;1.00;;;;;;5108553;28;20187;-52
2021/10/07 00:25:19;;;;;;;4.20;3.90;;;11.10;1.00;;;;;;5109482;28;20240;-51
2021/10/07 00:27:45;;;;;;;3.53;3.30;;;11.10;1.00;;;;;;5108888;28;20187;-56
2021/10/07 00:30:18;;;;;;;4.47;4.03;;;11.10;1.00;;;;;;5109823;28;20183;-54
2021/10/07 00:33:08;;;;;;;4.13;3.77;;;11.10;1.00;;;;;;5104095;28;20703;-53
2021/10/07 00:40:49;;;;;;;5.40;3.80;;;11.00;1.00;;;;;;5107720;28;20434;-53
2021/10/07 00:43:15;;;;;;;7.00;3.90;;;11.00;1.00;;;;;;5108671;28;20437;-52
2021/10/07 00:45:41;;;;;;;3.70;3.40;;;11.00;1.00;;;;;;5107191;28;20423;-53
2021/10/07 00:48:07;;;;;;;4.30;2.97;;;10.90;1.00;;;;;;5109569;28;20481;-52
2021/10/07 00:50:32;;;;;;;4.60;3.43;;;10.90;1.00;;;;;;5108670;28;20192;-53
2021/10/07 00:52:58;;;;;;;4.53;4.13;;;10.90;1.00;;;;;;5110024;28;20213;-55
2021/10/07 00:55:24;;;;;;;5.47;4.03;;;10.90;1.00;;;;;;5113235;28;20244;-53
2021/10/07 00:57:50;;;;;;;5.20;3.80;;;10.90;1.00;;;;;;5109178;28;20447;-53
2021/10/07 01:00:16;;;;;;;4.20;3.80;;;10.90;1.00;;;;;;5112948;28;20439;-51
2021/10/07 01:02:41;;;;;;;3.40;3.10;;;10.90;1.00;;;;;;5114131;28;20213;-53
2021/10/07 01:05:07;;;;;;;4.30;3.90;;;10.90;1.00;;;;;;5112721;28;20285;-54
2021/10/07 01:07:33;;;;;;;4.00;3.47;;;10.80;1.00;;;;;;5110588;28;20235;-54
2021/10/07 01:09:59;;;;;;;3.70;3.40;;;10.70;1.00;;;;;;5109293;28;20419;-53
2021/10/07 01:12:24;;;;;;;4.83;4.33;;;10.70;1.00;;;;;;5113134;28;20222;-53
2021/10/07 01:14:54;;;;;;;3.70;3.20;;;10.80;1.00;;;;;;5111213;27;20198;-55
2021/10/07 01:17:26;;;;;;;4.17;3.77;;;10.70;1.00;;;;;;5112389;27;20179;-52
2021/10/07 01:19:54;;;;;;;5.00;3.60;;;10.80;1.00;;;;;;5111466;28;20436;-51
2021/10/07 01:22:21;;;;;;;4.83;3.50;;;10.80;1.00;;;;;;5108624;28;20467;-53
2021/10/07 01:24:47;;;;;;;3.13;2.93;;;10.60;1.00;;;;;;5109670;28;20452;-52
2021/10/07 01:27:13;;;;;;;3.83;3.40;;;10.60;1.00;;;;;;5113722;28;20490;-54
2021/10/07 01:29:39;;;;;;;4.20;3.70;;;10.60;1.00;;;;;;5111794;28;20443;-53
2021/10/07 01:32:06;;;;;;;4.10;3.40;;;10.60;1.00;;;;;;5110068;28;20515;-51
2021/10/07 01:34:32;;;;;;;5.80;3.97;;;10.60;1.00;;;;;;5112091;28;20795;-53
2021/10/07 01:36:59;;;;;;;3.60;3.30;;;10.70;1.00;;;;;;5111631;28;20446;-53
2021/10/07 01:39:25;;;;;;;4.57;3.50;;;10.70;1.00;;;;;;5111468;28;20447;-51
2021/10/07 01:41:51;;;;;;;3.80;3.10;;;10.70;1.00;;;;;;5112111;28;20710;-55
2021/10/07 01:44:18;;;;;;;4.03;3.63;;;10.70;1.00;;;;;;5111232;28;20725;-53
2021/10/07 01:46:44;;;;;;;4.70;3.10;;;10.60;1.00;;;;;;5110555;28;20561;-51
2021/10/07 01:49:10;;;;;;;4.17;2.80;;;10.50;1.00;;;;;;5109924;27;20449;-55
2021/10/07 01:51:36;;;;;;;3.80;3.07;;;10.50;1.00;;;;;;5112022;28;20460;-55
2021/10/07 01:54:04;;;;;;;4.67;3.87;;;10.50;1.00;;;;;;5111176;28;20257;-53
2021/10/07 01:56:29;;;;;;;3.37;3.17;;;10.50;1.00;;;;;;5107445;28;20476;-52
2021/10/07 01:58:56;;;;;;;4.10;3.80;;;10.50;1.00;;;;;;5109137;28;20440;-53
2021/10/07 02:01:21;;;;;;;3.73;3.33;;;10.40;1.00;;;;;;5110746;28;20206;-51
2021/10/07 02:03:47;;;;;;;5.33;3.43;;;10.40;1.00;;;;;;5104740;28;20553;-51
2021/10/07 02:06:13;;;;;;;4.30;3.40;;;10.40;1.00;;;;;;5111930;28;20236;-54
2021/10/07 02:08:39;;;;;;;3.50;3.10;;;10.30;1.00;;;;;;5108979;27;20202;-53
2021/10/07 02:11:07;;;;;;;3.37;3.07;;;10.30;1.00;;;;;;5109278;28;20527;-55
2021/10/07 02:13:33;;;;;;;4.10;3.20;;;10.30;1.00;;;;;;5111656;28;20199;-54
2021/10/07 02:15:58;;;;;;;3.30;3.00;;;10.40;1.00;;;;;;5093366;28;20469;-53
2021/10/07 02:18:24;;;;;;;3.70;3.10;;;10.30;1.00;;;;;;5112140;28;20261;-53
2021/10/07 02:20:50;;;;;;;3.20;3.00;;;10.40;1.00;;;;;;5111260;28;20191;-52
2021/10/07 02:23:16;;;;;;;4.77;3.53;;;10.40;1.00;;;;;;5108376;28;20953;-54
2021/10/07 02:25:42;;;;;;;3.77;3.47;;;10.30;1.00;;;;;;5111276;28;20482;-53
2021/10/07 02:28:07;;;;;;;5.53;3.67;;;10.30;1.00;;;;;;5112216;28;20247;-52
2021/10/07 02:30:33;;;;;;;3.37;2.90;;;10.30;1.00;;;;;;5110006;28;20205;-51
2021/10/07 02:32:58;;;;;;;5.97;3.80;;;10.20;1.00;;;;;;5108139;28;20269;-52
2021/10/07 02:35:24;;;;;;;3.30;3.10;;;10.20;1.00;;;;;;5111870;28;20211;-53
2021/10/07 02:37:49;;;;;;;4.53;3.37;;;10.20;1.00;;;;;;5109800;28;20206;-52
2021/10/07 02:40:17;;;;;;;4.20;3.90;;;10.20;1.00;;;;;;5109274;28;20190;-52
2021/10/07 02:42:43;;;;;;;4.87;3.50;;;10.20;1.00;;;;;;5109993;28;20222;-54
2021/10/07 02:45:11;;;;;;;5.27;3.07;;;10.20;1.00;;;;;;5092212;28;20460;-53
2021/10/07 02:47:37;;;;;;;3.60;3.00;;;10.10;1.00;;;;;;5109964;28;20699;-54
2021/10/07 02:50:04;;;;;;;4.10;3.00;;;10.10;1.00;;;;;;5106711;28;21076;-53
2021/10/07 02:52:30;;;;;;;3.57;3.23;;;10.10;1.00;;;;;;5112067;28;20817;-51
2021/10/07 02:54:55;;;;;;;4.87;4.20;;;10.10;1.00;;;;;;5105881;28;20452;-52
2021/10/07 02:57:21;;;;;;;3.90;3.50;;;10.10;1.00;;;;;;5111166;28;20178;-51
2021/10/07 02:59:46;;;;;;;3.60;3.30;;;10.10;1.00;;;;;;5075849;28;20687;-52
2021/10/07 03:02:12;;;;;;;3.80;3.50;;;10.10;1.00;;;;;;5111357;28;20223;-52
2021/10/07 03:04:37;;;;;;;4.07;3.40;;;10.00;1.00;;;;;;5108192;28;20540;-55
2021/10/07 03:07:03;;;;;;;3.50;3.20;;;10.00;1.00;;;;;;5110789;28;20643;-53
2021/10/07 03:09:29;;;;;;;4.43;4.00;;;10.00;1.00;;;;;;5105782;27;21123;-53
2021/10/07 03:11:54;;;;;;;4.67;3.70;;;10.10;1.00;;;;;;5105476;27;20194;-53
2021/10/07 03:14:20;;;;;;;7.00;4.30;;;10.10;1.00;;;;;;5110339;28;20193;-53
2021/10/07 03:16:45;;;;;;;4.47;3.60;;;10.00;1.00;;;;;;5110082;27;20206;-54
2021/10/07 03:19:12;;;;;;;3.90;3.60;;;10.00;1.00;;;;;;5109921;28;20616;-51
2021/10/07 03:21:38;;;;;;;4.17;3.77;;;9.90;1.00;;;;;;5111199;28;20636;-52
2021/10/07 03:24:04;;;;;;;4.57;4.17;;;9.90;1.00;;;;;;5111376;28;20468;-54
2021/10/07 03:26:30;;;;;;;5.73;3.80;;;9.90;1.00;;;;;;5101085;28;20185;-51
2021/10/07 03:28:56;;;;;;;4.70;3.77;;;10.00;1.00;;;;;;5110841;28;20940;-53
2021/10/07 03:31:21;;;;;;;6.50;3.77;;;10.00;1.00;;;;;;5110688;28;20186;-51
2021/10/07 03:33:47;;;;;;;7.67;3.97;;;10.00;1.00;;;;;;5109063;28;20186;-53
2021/10/07 03:36:12;;;;;;;4.27;3.90;;;10.00;1.00;;;;;;5108038;28;20198;-54
2021/10/07 03:38:38;;;;;;;4.53;4.10;;;9.90;1.00;;;;;;5110680;28;20175;-53
2021/10/07 03:41:03;;;;;;;4.70;3.73;;;9.90;1.00;;;;;;5109471;28;20178;-54
2021/10/07 03:43:30;;;;;;;4.07;3.70;;;9.90;1.00;;;;;;5107557;28;20659;-53
2021/10/07 03:45:55;;;;;;;5.20;4.43;;;9.90;1.00;;;;;;5094418;28;20190;-53
2021/10/07 03:48:21;;;;;;;4.03;3.73;;;9.90;1.00;;;;;;5101848;28;21015;-52
2021/10/07 03:50:47;;;;;;;6.20;3.50;;;9.80;1.00;;;;;;5099475;28;20260;-55
2021/10/07 03:53:13;;;;;;;6.47;4.10;;;9.90;1.00;;;;;;5100821;28;20392;-54
2021/10/07 03:55:38;;;;;;;8.33;4.20;;;9.80;1.00;;;;;;5098910;28;20234;-52
2021/10/07 03:58:04;;;;;;;3.70;3.33;;;9.80;1.00;;;;;;5100921;28;20464;-53
2021/10/07 04:00:29;;;;;;;4.27;3.80;;;9.80;1.00;;;;;;5086689;28;20175;-52
2021/10/07 04:02:57;;;;;;;4.33;3.93;;;9.80;1.00;;;;;;5107883;27;20227;-54
2021/10/07 04:05:24;;;;;;;4.07;3.77;;;9.80;1.00;;;;;;5109002;28;20604;-53
2021/10/07 04:07:49;;;;;;;5.10;4.57;;;9.80;1.00;;;;;;5108846;28;20514;-55
2021/10/07 04:10:15;;;;;;;4.33;3.83;;;9.90;1.00;;;;;;5109332;28;20439;-53
2021/10/07 04:12:40;;;;;;;4.70;3.83;;;9.90;1.00;;;;;;5109586;28;20345;-52
2021/10/07 04:15:07;;;;;;;4.87;3.90;;;9.90;1.00;;;;;;5108915;28;20202;-54
2021/10/07 04:17:32;;;;;;;4.23;3.60;;;9.70;1.00;;;;;;5112362;27;20183;-52
2021/10/07 04:19:58;;;;;;;4.80;3.60;;;9.60;1.00;;;;;;5111280;27;20975;-53
2021/10/07 04:22:23;;;;;;;5.00;3.67;;;9.70;1.00;;;;;;5111306;27;20186;-51
2021/10/07 04:24:49;;;;;;;4.80;4.40;;;9.70;1.00;;;;;;5108798;28;20223;-53
2021/10/07 04:27:15;;;;;;;3.60;3.30;;;9.70;1.00;;;;;;5109471;28;20171;-55
2021/10/07 04:29:42;;;;;;;5.70;3.77;;;9.60;1.00;;;;;;5108602;28;20501;-53
2021/10/07 04:32:08;;;;;;;6.63;3.97;;;9.60;1.00;;;;;;5109727;28;20483;-53
2021/10/07 04:34:33;;;;;;;7.03;3.57;;;9.50;1.00;;;;;;5107389;28;20460;-53
2021/10/07 04:36:58;;;;;;;5.53;3.73;;;9.50;1.00;;;;;;5109104;28;20289;-52
2021/10/07 04:39:24;;;;;;;4.80;4.30;;;9.50;1.00;;;;;;5102946;28;20185;-53
2021/10/07 04:41:49;;;;;;;8.43;6.57;;;9.60;1.00;;;;;;5108585;28;20178;-53
2021/10/07 04:44:15;;;;;;;5.73;4.50;;;9.60;1.00;;;;;;5108753;28;20186;-55
2021/10/07 04:46:41;;;;;;;5.00;4.23;;;9.50;1.00;;;;;;5107093;28;20248;-54
2021/10/07 04:49:06;;;;;;;4.30;3.90;;;9.50;1.00;;;;;;5109675;28;20187;-52
2021/10/07 04:51:32;;;;;;;4.43;4.00;;;9.50;1.00;;;;;;5107610;28;20221;-55
2021/10/07 04:53:58;;;;;;;7.60;4.07;;;9.40;1.00;;;;;;5105679;28;20608;-54
2021/10/07 04:56:23;;;;;;;4.43;3.80;;;9.50;1.00;;;;;;5107759;28;20206;-54
2021/10/07 04:58:49;;;;;;;5.93;4.70;;;9.50;1.00;;;;;;5107713;28;20593;-54
2021/10/07 05:01:19;;;;;;;4.43;3.80;;;9.50;1.00;;;;;;5105374;28;20174;-55
2021/10/07 05:03:45;;;;;;;6.20;3.97;;;9.50;1.00;;;;;;5107359;28;20175;-55
2021/10/07 05:06:10;;;;;;;4.63;4.23;;;9.50;1.00;;;;;;5105178;28;20499;-54
2021/10/07 05:08:36;;;;;;;4.77;3.47;;;9.40;1.00;;;;;;5109903;28;20190;-52
2021/10/07 05:11:01;;;;;;;4.97;4.47;;;9.40;1.00;;;;;;5107188;28;20195;-54
2021/10/07 05:13:27;;;;;;;4.97;3.97;;;9.40;1.00;;;;;;5108815;28;20644;-51
2021/10/07 05:15:52;;;;;;;3.87;3.37;;;9.40;1.00;;;;;;5105747;28;20210;-55
2021/10/07 05:18:18;;;;;;;4.70;4.30;;;9.40;1.00;;;;;;5110146;28;20654;-55
2021/10/07 05:20:45;;;;;;;5.80;4.57;;;9.40;1.00;;;;;;5097103;28;20182;-53
2021/10/07 05:23:12;;;;;;;6.13;3.77;;;9.40;1.00;;;;;;5102675;28;20175;-52
2021/10/07 05:25:38;;;;;;;5.43;3.70;;;9.30;1.00;;;;;;5108524;28;20483;-52
2021/10/07 05:28:03;;;;;;;5.60;4.10;;;9.40;1.00;;;;;;5106566;28;20490;-52
2021/10/07 05:30:29;;;;;;;5.00;3.80;;;9.40;1.00;;;;;;5106455;28;20182;-54
2021/10/07 05:32:54;;;;;;;4.33;3.93;;;9.40;1.00;;;;;;5108141;28;20193;-54
2021/10/07 05:35:20;;;;;;;4.50;4.20;;;9.40;1.00;;;;;;5103830;28;20226;-52
2021/10/07 05:37:46;;;;;;;5.90;4.20;;;9.40;1.00;;;;;;5106194;28;20191;-53
2021/10/07 05:40:12;;;;;;;4.20;3.73;;;9.40;1.00;;;;;;5110994;28;20403;-53
2021/10/07 05:42:38;;;;;;;3.50;3.13;;;9.40;1.00;;;;;;5111822;28;20178;-53
2021/10/07 05:45:04;;;;;;;4.00;3.67;;;9.40;1.00;;;;;;5111785;28;20189;-53
2021/10/07 05:47:29;;;;;;;7.37;4.20;;;9.40;1.00;;;;;;5111888;28;20440;-54
2021/10/07 05:49:55;;;;;;;6.63;3.60;;;9.30;1.00;;;;;;5110277;27;20465;-52
2021/10/07 05:52:20;;;;;;;5.90;3.70;;;9.40;1.00;;;;;;5111367;28;20198;-52
2021/10/07 05:54:46;;;;;;;4.87;3.97;;;9.40;1.00;;;;;;5111329;28;20182;-54
2021/10/07 05:57:12;;;;;;;9.30;4.10;;;9.40;1.00;;;;;;5110025;28;20694;-53
2021/10/07 05:59:37;;;;;;;5.43;4.10;;;9.40;1.00;;;;;;5110614;28;20179;-54
2021/10/07 06:02:03;;;;;;;4.30;3.47;;;9.50;1.00;;;;;;5108623;28;20186;-51
2021/10/07 06:04:28;;;;;;;7.00;3.87;;;9.50;1.00;;;;;;5110720;28;20174;-52
2021/10/07 06:06:54;;;;;;;5.10;4.63;;;9.50;1.00;;;;;;5112364;28;20632;-53
2021/10/07 06:09:19;;;;;;;3.60;3.17;;;9.50;1.00;;;;;;5112224;28;20193;-55
2021/10/07 06:11:45;;;;;;;5.43;3.37;;;9.50;1.00;;;;;;5107482;28;20183;-55
2021/10/07 06:14:10;;;;;;;3.87;3.47;;;9.60;1.00;;;;;;5112779;28;20281;-52
2021/10/07 06:16:39;;;;;;;4.10;3.80;;;9.60;1.00;;;;;;5094076;28;20332;-55
2021/10/07 06:19:09;;;;;;;8.10;4.57;;;9.70;1.00;;;;;;5111759;27;20248;-53
2021/10/07 06:21:34;;;;;;;5.77;4.83;;;9.70;1.00;;;;;;5107195;28;20440;-55
2021/10/07 06:24:00;;;;;;;4.87;4.40;;;9.80;1.00;;;;;;5108412;28;20414;-54
2021/10/07 06:26:26;;;;;;;5.47;3.87;;;10.00;1.00;;;;;;5110391;28;20265;-54
2021/10/07 06:28:51;;;;;;;4.37;3.97;;;10.00;1.00;;;;;;5112172;28;20593;-52
2021/10/07 06:31:17;;;;;;;4.43;3.80;;;10.10;1.00;;;;;;5111676;28;20187;-54
2021/10/07 06:33:42;;;;;;;5.70;3.47;;;10.20;1.00;;;;;;5110444;28;20183;-54
2021/10/07 06:36:08;;;;;;;4.33;3.93;;;10.10;1.00;;;;;;5109700;28;20219;-54
2021/10/07 06:38:34;;;;;;;4.43;4.03;;;10.20;1.00;;;;;;5109109;28;20182;-55
2021/10/07 06:41:00;;;;;;;5.83;4.13;;;10.40;1.00;;;;;;5110771;28;20809;-56
2021/10/07 06:43:25;;;;;;;5.87;4.17;;;10.50;1.00;;;;;;5105711;28;20655;-53
2021/10/07 06:45:51;;;;;;;6.37;4.33;;;10.60;1.00;;;;;;5110649;28;20258;-54
2021/10/07 06:48:17;;;;;;;3.83;3.50;;;10.70;1.00;;;;;;5111897;28;20212;-53
2021/10/07 06:50:43;;;;;;;4.57;4.23;;;10.70;1.00;;;;;;5106875;28;20535;-51
2021/10/07 06:53:09;;;;;;;21.47;7.00;;;10.80;1.00;;;;;;5107327;28;20248;-54
2021/10/07 06:55:36;;;;;;;5.40;4.10;;;10.80;1.00;;;;;;5107614;28;20463;-54
2021/10/07 06:58:03;;;;;;;4.60;4.20;;;10.90;1.00;;;;;;5110551;28;20508;-55
2021/10/07 07:00:28;;;;;;;5.90;4.13;;;11.00;1.00;;;;;;5089511;28;20492;-53
2021/10/07 07:02:55;;;;;;;3.87;3.03;;;11.30;1.00;;;;;;5109250;28;20468;-52
2021/10/07 07:05:22;;;;;;;4.90;3.83;;;11.50;1.00;;;;;;5107466;28;20277;-54
2021/10/07 07:07:47;;;;;;;3.50;3.20;;;11.70;1.00;;;;;;5111335;28;20790;-52
2021/10/07 07:10:19;;;;;;;3.50;2.97;;;11.90;1.00;;;;;;5106352;28;20422;-53
2021/10/07 07:12:46;;;;;;;5.07;3.70;;;11.90;1.00;;;;;;5108679;27;20188;-54
2021/10/07 07:15:12;;;;;;;4.63;4.00;;;12.00;1.00;;;;;;5110881;28;20465;-55
2021/10/07 07:17:38;;;;;;;4.13;3.50;;;12.00;1.00;;;;;;5108545;28;20440;-53
2021/10/07 07:20:05;;;;;;;4.67;3.33;;;12.20;1.00;;;;;;5112483;27;20585;-52
2021/10/07 07:22:30;;;;;;;6.07;3.37;;;12.50;1.00;;;;;;5109541;28;20436;-51
2021/10/07 07:24:56;;;;;;;4.40;3.27;;;12.80;1.00;;;;;;5109272;28;20534;-54
2021/10/07 07:27:22;;;;;;;5.83;3.37;;;13.00;1.00;;;;;;5110823;28;20548;-53
2021/10/07 07:29:47;;;;;;;3.57;3.27;;;13.30;1.00;;;;;;5109328;27;20187;-54
2021/10/07 07:32:13;;;;;;;4.63;3.70;;;13.30;1.00;;;;;;5092962;28;20188;-55
2021/10/07 07:34:39;;;;;;;4.13;3.63;;;13.30;1.00;;;;;;5106122;28;20246;-55
2021/10/07 07:37:04;;;;;;;6.23;4.50;;;13.20;1.00;;;;;;5106927;28;20935;-55
2021/10/07 07:39:30;;;;;;;6.30;4.23;;;13.20;1.00;;;;;;5103530;28;20183;-55
2021/10/07 07:41:56;;;;;;;4.37;3.97;;;13.20;1.00;;;;;;5110324;28;20257;-54
2021/10/07 07:44:21;;;;;;;6.03;4.30;;;13.20;1.00;;;;;;5108786;28;20175;-52
2021/10/07 07:46:47;;;;;;;4.70;4.30;;;13.30;1.00;;;;;;5108095;28;20178;-52
2021/10/07 07:49:12;;;;;;;8.83;4.20;;;13.50;1.00;;;;;;5106212;28;20187;-54
2021/10/07 07:51:38;;;;;;;8.33;5.23;;;13.70;1.00;;;;;;5107307;28;20289;-53
2021/10/07 07:54:04;;;;;;;5.47;4.17;;;13.70;1.00;;;;;;5089486;28;20183;-52
2021/10/07 07:56:30;;;;;;;5.00;4.50;;;13.70;1.00;;;;;;5107391;27;20255;-54
2021/10/07 07:58:55;;;;;;;8.43;3.80;;;13.70;1.00;;;;;;5110340;28;20187;-54
2021/10/07 08:01:22;;;;;;;5.57;4.30;;;13.80;1.00;;;;;;5104525;28;20536;-52
2021/10/07 08:03:48;;;;;;;7.23;4.47;;;13.80;1.00;;;;;;5110789;28;20179;-53
2021/10/07 08:06:13;;;;;;;6.27;3.83;;;14.00;1.00;;;;;;5110921;28;20467;-55
2021/10/07 08:08:39;;;;;;;7.07;3.93;;;14.10;1.00;;;;;;5110562;28;20439;-54
2021/10/07 08:11:04;;;;;;;9.17;4.93;;;14.20;1.00;;;;;;5109635;28;20198;-54
2021/10/07 08:13:30;;;;;;;6.83;4.27;;;14.20;1.00;;;;;;5109147;28;20201;-56
2021/10/07 08:15:55;;;;;;;4.67;4.17;;;14.10;1.00;;;;;;5090892;28;20200;-54
2021/10/07 08:18:21;;;;;;;4.43;4.03;;;14.20;1.00;;;;;;5106862;28;20549;-54
2021/10/07 08:20:46;;;;;;;4.93;3.87;;;14.20;1.00;;;;;;5107350;27;20181;-55
2021/10/07 08:23:13;;;;;;;6.37;5.00;;;14.40;1.00;;;;;;5110708;28;20187;-55
2021/10/07 08:25:41;;;;;;;7.27;5.40;;;14.60;1.00;;;;;;5110555;28;20211;-56
2021/10/07 08:28:09;;;;;;;6.53;4.20;;;14.60;1.00;;;;;;5110379;28;20519;-55
2021/10/07 08:30:36;;;;;;;9.63;4.07;;;14.80;1.00;;;;;;5109317;28;20488;-54
2021/10/07 08:33:02;;;;;;;5.03;4.40;;;14.90;1.00;;;;;;5092183;28;20456;-52
2021/10/07 08:35:28;;;;;;;7.20;4.87;;;14.90;1.00;;;;;;5110489;28;20468;-53
2021/10/07 08:37:54;;;;;;;6.63;3.87;;;15.10;1.00;;;;;;5110276;28;20408;-54
2021/10/07 08:40:19;;;;;;;5.73;4.30;;;15.30;1.00;;;;;;5110407;28;20190;-52
2021/10/07 08:42:45;;;;;;;5.40;4.23;;;15.40;1.00;;;;;;5110567;28;20783;-51
2021/10/07 08:45:11;;;;;;;5.83;4.07;;;15.30;1.00;;;;;;5110207;28;20179;-55
2021/10/07 08:47:39;;;;;;;6.90;4.03;;;15.30;1.00;;;;;;5110326;28;20205;-54
2021/10/07 08:50:06;;;;;;;5.23;4.37;;;15.50;1.00;;;;;;5109468;28;20448;-54
2021/10/07 08:52:32;;;;;;;8.27;4.40;;;15.50;1.00;;;;;;5110097;28;20754;-55
2021/10/07 08:54:57;;;;;;;5.30;4.80;;;15.60;1.00;;;;;;5110235;28;20489;-54
2021/10/07 08:57:23;;;;;;;4.87;4.03;;;15.70;1.00;;;;;;5110119;28;20187;-51
2021/10/07 08:59:49;;;;;;;8.13;4.30;;;15.80;1.00;;;;;;5110343;28;20186;-54
2021/10/07 09:02:28;;;;;;;4.87;4.47;;;16.00;1.00;;;;;;5110272;28;20178;-54
2021/10/07 09:05:04;;;;;;;8.03;4.73;;;16.10;1.00;;;;;;5112088;28;20511;-54
2021/10/07 09:07:30;;;;;;;6.00;4.77;;;16.10;1.00;;;;;;5103306;28;20506;-54
2021/10/07 09:09:57;;;;;;;4.43;3.97;;;16.10;1.00;;;;;;5088862;28;20590;-51
2021/10/07 09:12:22;;;;;;;7.43;4.87;;;16.10;1.00;;;;;;5107949;28;20180;-53
2021/10/07 09:14:49;;;;;;;6.30;4.30;;;16.10;1.00;;;;;;5112737;28;20450;-54
2021/10/07 09:17:17;;;;;;;5.13;4.27;;;16.20;1.00;;;;;;5108357;28;20208;-52
2021/10/07 09:19:45;;;;;;;4.97;4.57;;;16.10;1.00;;;;;;5112190;27;20418;-54
2021/10/07 09:22:21;;;;;;;5.50;4.20;;;16.20;1.00;;;;;;5113437;27;20973;-55
2021/10/07 09:25:00;;;;;;;4.30;3.90;;;16.40;1.00;;;;;;5113303;28;20729;-54
2021/10/07 09:27:27;;;;;;;5.33;3.33;;;16.70;1.00;;;;;;5110451;28;20431;-52
2021/10/07 09:30:11;;;;;;;6.97;3.73;;;16.90;1.00;;;;;;5109250;28;20777;-54
2021/10/07 09:32:47;;;;;;;4.03;3.73;;;16.90;1.00;;;;;;5111622;28;20420;-53
2021/10/07 09:35:19;;;;;;;4.13;3.40;;;16.90;1.00;;;;;;5111555;28;20501;-54
2021/10/07 09:37:46;;;;;;;5.37;3.80;;;16.90;1.00;;;;;;5111095;28;20469;-55
2021/10/07 09:40:21;;;;;;;8.17;4.67;;;17.10;1.00;;;;;;5112844;28;20884;-52
2021/10/07 09:42:50;;;;;;;4.33;3.77;;;17.30;1.00;;;;;;5112223;28;20493;-53
2021/10/07 09:45:23;;;;;;;5.10;3.70;;;16.90;1.00;;;;;;5111371;28;20412;-55
2021/10/07 09:48:00;;;;;;;4.57;4.03;;;17.00;1.00;;;;;;5111907;28;20430;-55
2021/10/07 09:50:39;;;;;;;4.43;4.07;;;17.30;1.00;;;;;;5111751;28;20425;-53
2021/10/07 09:53:05;;;;;;;7.10;4.37;;;17.30;1.00;;;;;;5110238;28;20476;-55
2021/10/07 09:55:45;;;;;;;4.23;3.83;;;17.30;1.00;;;;;;5113100;28;20460;-56
2021/10/07 09:58:16;;;;;;;4.37;3.90;;;17.30;1.00;;;;;;5110955;28;20425;-54
2021/10/07 10:00:49;;;;;;;6.53;4.03;;;17.10;1.00;;;;;;5108547;28;20412;-54
2021/10/07 10:03:16;;;;;;;4.23;3.80;;;17.00;1.00;;;;;;5109598;28;20578;-54
2021/10/07 10:05:44;;;;;;;5.20;4.07;;;17.00;1.00;;;;;;5107875;28;20511;-55
2021/10/07 10:08:13;;;;;;;6.27;3.70;;;16.90;1.00;;;;;;5109315;28;20492;-53
2021/10/07 10:10:40;;;;;;;3.73;3.33;;;17.20;1.00;;;;;;5112992;28;20433;-54
2021/10/07 10:13:10;;;;;;;3.70;3.23;;;17.20;1.00;;;;;;5112899;28;20445;-55
2021/10/07 10:15:37;;;;;;;6.10;3.40;;;17.40;1.00;;;;;;5111391;28;20473;-53
2021/10/07 10:18:10;;;;;;;4.40;3.23;;;17.40;1.00;;;;;;5111781;28;20408;-54
2021/10/07 10:20:40;;;;;;;5.60;3.50;;;17.70;1.00;;;;;;5108586;28;20441;-54
2021/10/07 10:23:18;;;;;;;2.93;2.67;;;18.00;1.00;;;;;;5112932;27;20430;-54
2021/10/07 10:26:08;;;;;;;9.50;3.37;;;17.90;1.00;;;;;;5111575;28;20409;-55
2021/10/07 10:28:40;;;;;;;2.40;2.20;;;17.90;1.00;;;;;;5112602;28;20805;-55
2021/10/07 10:31:09;;;;;;;3.33;2.00;;;18.00;1.00;;;;;;5109856;28;20432;-53
2021/10/07 10:33:37;;;;;;;4.30;2.80;;;18.10;1.00;;;;;;5109550;28;20439;-53
2021/10/07 10:36:25;;;;;;;2.83;2.40;;;18.40;1.00;;;;;;5109532;28;20426;-55
2021/10/07 10:39:19;;;;;;;3.07;2.50;;;18.50;1.00;;;;;;5111143;28;20437;-55
2021/10/07 10:41:58;;;;;;;2.73;2.53;;;18.60;1.00;;;;;;5110806;28;20414;-55
2021/10/07 10:44:26;;;;;;;4.67;2.00;;;18.70;1.00;;;;;;5111134;28;20468;-53
2021/10/07 10:47:07;;;;;;;3.37;2.10;;;18.60;1.00;;;;;;5110198;28;20792;-53
2021/10/07 10:49:55;;;;;;;2.73;2.20;;;18.40;1.00;;;;;;5107365;28;20458;-54
2021/10/07 10:52:30;;;;;;;4.10;2.30;;;18.40;1.00;;;;;;5108159;28;20476;-54
2021/10/07 10:55:06;;;;;;;4.80;2.40;;;18.60;1.00;;;;;;5112041;28;20421;-53
2021/10/07 10:57:36;;;;;;;2.27;2.07;;;18.70;1.00;;;;;;5109001;28;20443;-52
2021/10/07 11:00:09;;;;;;;5.00;1.97;;;18.90;1.00;;;;;;5111257;28;20463;-53
2021/10/07 11:02:39;;;;;;;6.37;2.23;;;19.00;1.00;;;;;;5109171;28;20463;-54
2021/10/07 11:05:25;;;;;;;3.03;2.43;;;19.10;1.00;;;;;;5110982;28;20976;-53
2021/10/07 11:08:19;;;;;;;4.93;1.97;;;18.90;1.00;;;;;;5109775;28;20427;-55
2021/10/07 11:10:50;;;;;;;2.93;2.40;;;19.00;1.00;;;;;;5104081;28;20822;-53
2021/10/07 11:13:20;;;;;;;4.07;2.60;;;19.00;1.00;;;;;;5110131;28;20435;-55
2021/10/07 11:15:57;;;;;;;3.10;2.13;;;19.00;1.00;;;;;;5109239;28;20442;-55
2021/10/07 11:18:26;;;;;;;2.93;2.20;;;19.10;1.00;;;;;;5108609;28;20448;-54
2021/10/07 11:21:00;;;;;;;3.03;2.20;;;19.10;1.00;;;;;;5107969;28;20409;-53
2021/10/07 11:23:28;;;;;;;3.50;2.37;;;19.00;1.00;;;;;;5112330;27;20445;-53
2021/10/07 11:25:57;;;;;;;3.80;2.40;;;19.20;1.00;;;;;;5109310;28;20813;-53
2021/10/07 11:28:32;;;;;;;4.83;1.80;;;19.20;1.00;;;;;;5109844;28;20776;-54
2021/10/07 11:31:05;;;;;;;3.03;2.07;;;18.60;1.00;;;;;;5108422;28;20994;-53
2021/10/07 11:33:31;;;;;;;4.17;2.47;;;18.30;1.00;;;;;;5107504;28;20450;-53
2021/10/07 11:36:01;;;;;;;5.97;2.60;;;18.40;1.00;;;;;;5104620;28;20917;-55
2021/10/07 11:38:27;;;;;;;6.00;3.07;;;18.40;1.00;;;;;;5107833;28;20182;-53
2021/10/07 11:40:54;;;;;;;3.83;2.63;;;18.40;1.00;;;;;;5107460;28;20435;-54
2021/10/07 11:43:24;;;;;;;8.93;3.23;;;18.60;1.00;;;;;;5106794;27;20548;-53
2021/10/07 11:45:53;;;;;;;2.63;2.43;;;18.80;1.00;;;;;;5108774;28;20505;-54
2021/10/07 11:48:20;;;;;;;2.80;2.00;;;19.10;1.00;;;;;;5108048;28;20466;-54
2021/10/07 11:50:47;;;;;;;6.30;2.80;;;19.20;1.00;;;;;;5106585;28;20460;-55
2021/10/07 11:53:16;;;;;;;4.73;2.33;;;19.20;1.00;;;;;;5107630;28;20443;-55
2021/10/07 11:55:45;;;;;;;2.50;2.17;;;19.10;1.00;;;;;;5106334;28;20472;-55
2021/10/07 11:58:12;;;;;;;3.00;1.93;;;18.70;1.00;;;;;;5106161;28;20411;-56
2021/10/07 12:00:43;;;;;;;2.33;2.13;;;18.70;1.00;;;;;;5109416;28;20443;-54
2021/10/07 12:03:18;;;;;;;4.40;2.43;;;18.70;1.00;;;;;;5105758;28;20986;-54
2021/10/07 12:05:47;;;;;;;3.87;2.00;;;18.60;1.00;;;;;;5108726;28;20443;-54
2021/10/07 12:08:17;;;;;;;3.13;2.17;;;18.70;1.00;;;;;;5110818;28;20415;-54
2021/10/07 12:11:01;;;;;;;3.17;2.20;;;19.20;1.00;;;;;;5110509;28;20521;-55
2021/10/07 12:13:33;;;;;;;4.83;3.17;;;19.40;1.00;;;;;;5107011;28;20479;-54
2021/10/07 12:16:01;;;;;;;3.07;2.50;;;19.40;1.00;;;;;;5107876;28;20931;-54
2021/10/07 12:18:27;;;;;;;3.20;2.13;;;19.60;1.00;;;;;;5109273;28;20414;-55
2021/10/07 12:20:59;;;;;;;2.70;2.50;;;19.70;1.00;;;;;;5106759;28;20764;-54
2021/10/07 12:23:25;;;;;;;4.17;2.73;;;19.90;1.00;;;;;;5107588;28;20769;-55
2021/10/07 12:25:57;;;;;;;4.03;2.20;;;20.10;1.00;;;;;;5108258;27;20440;-55
2021/10/07 12:28:23;;;;;;;4.00;2.43;;;19.80;1.00;;;;;;5110532;28;20420;-54
2021/10/07 12:30:56;;;;;;;2.33;2.13;;;19.60;1.00;;;;;;5109299;28;20459;-56
2021/10/07 12:33:25;;;;;;;3.90;2.37;;;19.50;1.00;;;;;;5110400;28;20432;-54
2021/10/07 12:36:06;;;;;;;2.40;2.10;;;19.20;1.00;;;;;;5109617;28;20447;-53
2021/10/07 12:38:53;;;;;;;5.03;2.60;;;19.00;1.00;;;;;;5106302;28;20440;-53
2021/10/07 12:41:33;;;;;;;4.20;2.90;;;19.20;1.00;;;;;;5076488;28;20435;-55
2021/10/07 12:43:58;;;;;;;4.80;2.70;;;19.30;1.00;;;;;;5107612;28;20447;-54
2021/10/07 12:46:25;;;;;;;5.10;2.63;;;19.50;1.00;;;;;;5111009;28;20915;-54
2021/10/07 12:48:59;;;;;;;3.57;3.27;;;19.70;1.00;;;;;;5110514;28;20220;-55
2021/10/07 12:51:33;;;;;;;4.60;2.90;;;19.70;1.00;;;;;;5110413;28;20818;-53
2021/10/07 12:53:59;;;;;;;2.60;2.40;;;19.70;1.00;;;;;;5109865;28;20810;-53
2021/10/07 12:56:30;;;;;;;4.00;2.27;;;19.80;1.00;;;;;;5091710;28;20816;-53
2021/10/07 12:58:58;;;;;;;3.40;2.80;;;20.10;1.00;;;;;;5109056;28;20414;-55
2021/10/07 13:01:26;;;;;;;3.40;2.40;;;19.80;1.00;;;;;;5110672;28;20947;-54
2021/10/07 13:04:22;;;;;;;3.30;2.20;;;19.50;1.00;;;;;;5110523;28;20403;-53
2021/10/07 13:06:54;;;;;;;4.50;3.03;;;19.20;1.00;;;;;;5109993;28;20924;-56
2021/10/07 13:09:20;;;;;;;3.33;2.50;;;19.20;1.00;;;;;;5108357;28;20424;-55